createdAt,value
2022-08-19T00:01:45.968Z,99.90
2022-08-19T00:05:34.983Z,99.90
2022-08-19T00:09:19.881Z,99.90
2022-08-19T00:13:01.742Z,99.90
2022-08-19T00:16:45.838Z,99.90
2022-08-19T00:20:27.965Z,99.90
2022-08-19T00:24:12.232Z,99.90
2022-08-19T00:27:56.984Z,99.90
2022-08-19T00:31:39.068Z,99.90
2022-08-19T00:35:21.006Z,99.90
2022-08-19T00:39:03.090Z,99.90
2022-08-19T00:42:46.331Z,99.90
2022-08-19T00:46:28.965Z,99.90
2022-08-19T00:50:13.703Z,99.90
2022-08-19T00:53:57.982Z,99.90
2022-08-19T00:57:43.022Z,99.90
2022-08-19T01:01:25.206Z,99.90
2022-08-19T01:05:12.492Z,99.90
2022-08-19T01:08:56.186Z,99.90
2022-08-19T01:12:38.864Z,99.90
2022-08-19T01:16:23.279Z,99.90
2022-08-19T01:20:08.528Z,99.90
2022-08-19T01:23:50.810Z,99.90
2022-08-19T01:27:44.419Z,99.90
2022-08-19T01:31:32.707Z,99.90
2022-08-19T01:35:17.949Z,99.90
2022-08-19T01:39:02.577Z,99.90
2022-08-19T01:42:44.551Z,99.90
2022-08-19T01:46:26.517Z,99.90
2022-08-19T01:50:11.084Z,99.90
2022-08-19T01:53:53.185Z,99.90
2022-08-19T01:57:35.558Z,99.90
2022-08-19T02:01:18.403Z,99.90
2022-08-19T02:05:00.494Z,99.90
2022-08-19T02:08:42.490Z,99.90
2022-08-19T02:12:24.426Z,99.90
2022-08-19T02:16:06.660Z,99.90
2022-08-19T02:19:49.938Z,99.90
2022-08-19T02:23:32.768Z,99.90
2022-08-19T02:27:15.670Z,99.90
2022-08-19T02:30:57.681Z,99.90
2022-08-19T02:34:39.615Z,99.90
2022-08-19T02:38:27.651Z,99.90
2022-08-19T02:42:09.978Z,99.90
2022-08-19T02:45:52.381Z,99.90
2022-08-19T02:49:34.643Z,99.90
2022-08-19T02:53:16.894Z,99.90
2022-08-19T02:56:59.457Z,99.90
2022-08-19T03:00:53.407Z,99.90
2022-08-19T03:04:35.623Z,99.90
2022-08-19T03:08:17.604Z,99.90
2022-08-19T03:11:59.892Z,99.90
2022-08-19T03:15:44.250Z,99.90
2022-08-19T03:19:26.247Z,99.90
2022-08-19T03:23:08.187Z,99.90
2022-08-19T03:26:58.242Z,99.90
2022-08-19T03:30:44.745Z,99.90
2022-08-19T03:34:29.717Z,99.90
2022-08-19T03:38:11.668Z,99.90
2022-08-19T03:42:32.229Z,99.90
2022-08-19T03:46:21.577Z,99.90
2022-08-19T03:50:04.170Z,99.90
2022-08-19T03:53:46.864Z,99.90
2022-08-19T03:57:31.949Z,99.90
2022-08-19T04:01:18.639Z,99.90
2022-08-19T04:05:00.662Z,99.90
2022-08-19T04:08:44.334Z,99.90
2022-08-19T04:12:26.293Z,99.90
2022-08-19T04:16:11.198Z,99.90
2022-08-19T04:19:53.196Z,99.90
2022-08-19T04:23:39.522Z,99.90
2022-08-19T04:27:27.541Z,99.90
2022-08-19T04:31:17.969Z,99.90
2022-08-19T04:35:02.175Z,99.90
2022-08-19T04:39:06.558Z,99.90
2022-08-19T04:42:48.777Z,99.90
2022-08-19T04:46:40.677Z,99.90
2022-08-19T04:50:33.982Z,99.90
2022-08-19T04:54:37.002Z,99.90
2022-08-19T04:58:19.839Z,99.90
2022-08-19T05:02:02.176Z,99.90
2022-08-19T05:05:51.665Z,99.90
2022-08-19T05:09:57.136Z,99.90
2022-08-19T05:13:35.686Z,99.90
2022-08-19T05:17:27.508Z,99.90
2022-08-19T05:21:30.770Z,99.90
2022-08-19T05:25:16.436Z,99.90
2022-08-19T05:28:58.346Z,99.90
2022-08-19T05:32:41.212Z,99.90
2022-08-19T05:36:23.125Z,99.90
2022-08-19T05:40:05.781Z,99.90
2022-08-19T05:43:47.758Z,99.90
2022-08-19T05:47:29.699Z,99.90
2022-08-19T05:51:12.440Z,99.90
2022-08-19T05:54:56.828Z,99.90
2022-08-19T05:58:39.645Z,99.90
2022-08-19T06:02:21.642Z,99.90
2022-08-19T06:06:03.780Z,99.90
2022-08-19T06:09:58.871Z,99.90
2022-08-19T06:13:46.077Z,99.90
2022-08-19T06:17:28.041Z,99.90
2022-08-19T06:21:10.157Z,99.90
2022-08-19T06:24:53.711Z,99.90
2022-08-19T06:28:35.654Z,99.90
2022-08-19T06:32:19.879Z,99.90
2022-08-19T06:36:01.879Z,99.90
2022-08-19T06:39:45.401Z,99.90
2022-08-19T06:43:28.092Z,99.90
2022-08-19T06:47:23.950Z,99.50
2022-08-19T06:51:08.763Z,99.60
2022-08-19T06:54:56.511Z,99.10
2022-08-19T06:58:39.438Z,99.10
2022-08-19T07:02:21.834Z,98.60
2022-08-19T07:06:41.213Z,98.10
2022-08-19T07:10:15.740Z,97.50
2022-08-19T07:13:59.367Z,96.50
2022-08-19T07:17:42.215Z,95.80
2022-08-19T07:21:29.649Z,95.30
2022-08-19T07:25:14.306Z,94.40
2022-08-19T07:28:58.521Z,94.30
2022-08-19T07:32:41.518Z,92.70
2022-08-19T07:36:33.184Z,92.00
2022-08-19T07:40:15.354Z,91.30
2022-08-19T07:43:58.080Z,91.10
2022-08-19T07:47:49.072Z,90.50
2022-08-19T07:51:36.737Z,90.30
2022-08-19T07:55:41.080Z,88.00
2022-08-19T07:59:25.586Z,88.00
2022-08-19T08:03:07.606Z,85.60
2022-08-19T08:07:08.170Z,84.90
2022-08-19T08:10:53.107Z,83.50
2022-08-19T08:14:48.403Z,83.10
2022-08-19T08:18:30.650Z,83.40
2022-08-19T08:22:36.191Z,81.40
2022-08-19T08:26:19.424Z,81.30
2022-08-19T08:30:02.946Z,80.50
2022-08-19T08:33:45.802Z,79.50
2022-08-19T08:37:27.726Z,79.80
2022-08-19T08:41:20.644Z,79.60
2022-08-19T08:45:02.729Z,78.30
2022-08-19T08:49:04.688Z,78.40
2022-08-19T08:52:52.270Z,80.80
2022-08-19T08:56:34.688Z,79.30
2022-08-19T09:00:20.880Z,75.30
2022-08-19T09:04:09.638Z,75.00
2022-08-19T09:07:59.848Z,73.90
2022-08-19T09:16:32.025Z,75.30
2022-08-19T09:20:29.744Z,69.10
2022-08-19T09:24:23.571Z,71.30
2022-08-19T09:28:22.071Z,68.50
2022-08-19T09:32:05.133Z,69.30
2022-08-19T09:36:09.509Z,68.90
2022-08-19T09:39:51.959Z,66.80
2022-08-19T09:43:44.377Z,66.10
2022-08-19T09:47:29.933Z,62.80
2022-08-19T09:51:16.718Z,60.90
2022-08-19T09:54:58.796Z,58.40
2022-08-19T09:58:40.958Z,56.60
2022-08-19T10:02:22.894Z,54.00
2022-08-19T10:06:14.896Z,52.60
2022-08-19T10:09:59.465Z,52.90
2022-08-19T10:13:41.734Z,53.40
2022-08-19T10:17:26.779Z,53.80
2022-08-19T10:21:20.685Z,53.40
2022-08-19T10:25:02.742Z,54.00
2022-08-19T10:28:47.087Z,52.60
2022-08-19T10:32:33.946Z,52.10
2022-08-19T10:36:23.597Z,51.20
2022-08-19T10:40:08.819Z,51.70
2022-08-19T10:43:55.784Z,51.10
2022-08-19T10:47:38.143Z,51.40
2022-08-19T10:51:46.585Z,51.70
2022-08-19T10:55:48.367Z,51.90
2022-08-19T10:59:35.731Z,51.70
2022-08-19T11:03:18.120Z,51.20
2022-08-19T11:07:00.370Z,50.90
2022-08-19T11:10:50.190Z,52.90
2022-08-19T11:14:34.817Z,54.50
2022-08-19T11:18:17.997Z,56.50
2022-08-19T11:22:02.441Z,57.90
2022-08-19T11:25:46.471Z,59.00
2022-08-19T11:29:28.903Z,58.40
2022-08-19T11:33:11.980Z,58.10
2022-08-19T11:36:55.716Z,57.60
2022-08-19T11:40:37.893Z,55.40
2022-08-19T11:44:20.481Z,52.90
2022-08-19T11:48:03.170Z,53.20
2022-08-19T11:51:45.403Z,51.50
2022-08-19T11:55:27.569Z,51.70
2022-08-19T11:59:14.471Z,50.80
2022-08-19T12:02:56.819Z,50.70
2022-08-19T12:06:40.602Z,50.20
2022-08-19T12:10:26.267Z,51.60
2022-08-19T12:14:14.661Z,52.40
2022-08-19T12:17:58.451Z,53.70
2022-08-19T12:21:41.307Z,50.90
2022-08-19T12:25:23.315Z,50.90
2022-08-19T12:29:05.819Z,52.50
2022-08-19T12:32:47.806Z,53.00
2022-08-19T12:36:30.192Z,52.80
2022-08-19T12:40:13.149Z,52.60
2022-08-19T12:43:55.108Z,52.30
2022-08-19T12:47:38.019Z,53.10
2022-08-19T12:51:22.803Z,53.30
2022-08-19T12:55:06.990Z,55.10
2022-08-19T12:58:50.645Z,54.50
2022-08-19T13:02:38.319Z,54.00
2022-08-19T13:06:21.496Z,52.50
2022-08-19T13:10:04.047Z,52.40
2022-08-19T13:13:48.433Z,51.80
2022-08-19T13:17:30.404Z,51.50
2022-08-19T13:21:14.024Z,49.80
2022-08-19T13:24:55.994Z,49.40
2022-08-19T13:28:56.626Z,48.70
2022-08-19T13:32:57.110Z,49.90
2022-08-19T13:36:39.736Z,50.90
2022-08-19T13:40:27.231Z,52.10
2022-08-19T13:44:09.627Z,52.80
2022-08-19T13:47:59.004Z,53.60
2022-08-19T13:51:43.021Z,53.80
2022-08-19T13:55:26.441Z,53.80
2022-08-19T13:59:08.776Z,53.60
2022-08-19T14:02:53.038Z,52.30
2022-08-19T14:06:35.281Z,52.00
2022-08-19T14:10:18.182Z,51.90
2022-08-19T14:14:00.161Z,52.60
2022-08-19T14:17:47.794Z,50.00
2022-08-19T14:21:29.871Z,50.30
2022-08-19T14:25:16.373Z,50.40
2022-08-19T14:28:58.839Z,50.00
2022-08-19T14:32:40.831Z,50.60
2022-08-19T14:36:22.993Z,49.90
2022-08-19T14:40:05.769Z,50.20
2022-08-19T14:43:50.869Z,49.10
2022-08-19T14:47:33.541Z,48.90
2022-08-19T14:51:15.575Z,48.40
2022-08-19T14:54:57.615Z,48.10
2022-08-19T14:58:43.284Z,47.90
2022-08-19T15:02:34.852Z,48.30
2022-08-19T15:06:17.180Z,47.80
2022-08-19T15:09:59.640Z,47.60
2022-08-19T15:13:42.268Z,48.00
2022-08-19T15:17:43.502Z,47.60
2022-08-19T15:21:28.770Z,48.20
2022-08-19T15:25:13.516Z,48.60
2022-08-19T15:28:57.009Z,48.40
2022-08-19T15:32:39.878Z,48.80
2022-08-19T15:36:21.799Z,49.00
2022-08-19T15:40:05.434Z,48.60
2022-08-19T15:43:48.973Z,49.10
2022-08-19T15:47:35.196Z,49.30
2022-08-19T15:51:18.447Z,49.00
2022-08-19T15:55:00.996Z,50.70
2022-08-19T15:59:01.746Z,50.50
2022-08-19T16:03:02.738Z,52.00
2022-08-19T16:06:52.187Z,52.50
2022-08-19T16:10:34.224Z,53.50
2022-08-19T16:14:18.622Z,54.60
2022-08-19T16:18:04.895Z,55.40
2022-08-19T16:21:48.266Z,55.30
2022-08-19T16:25:30.251Z,55.90
2022-08-19T16:29:13.206Z,56.90
2022-08-19T16:32:55.511Z,57.20
2022-08-19T16:36:41.903Z,57.10
2022-08-19T16:40:24.092Z,58.40
2022-08-19T16:44:07.943Z,60.00
2022-08-19T16:47:50.688Z,61.50
2022-08-19T16:51:33.835Z,63.10
2022-08-19T16:55:16.983Z,64.00
2022-08-19T16:58:59.919Z,64.10
2022-08-19T17:02:41.910Z,63.70
2022-08-19T17:06:26.920Z,63.70
2022-08-19T17:10:09.250Z,62.30
2022-08-19T17:13:51.807Z,61.30
2022-08-19T17:17:34.232Z,62.40
2022-08-19T17:21:16.147Z,61.70
2022-08-19T17:24:58.655Z,62.40
2022-08-19T17:28:40.725Z,62.30
2022-08-19T17:32:25.265Z,62.50
2022-08-19T17:36:08.139Z,63.10
2022-08-19T17:39:50.317Z,63.50
2022-08-19T17:43:35.452Z,63.70
2022-08-19T17:47:21.295Z,62.80
2022-08-19T17:51:25.763Z,62.10
2022-08-19T17:55:10.389Z,62.60
2022-08-19T17:59:00.331Z,63.20
2022-08-19T18:02:54.212Z,63.40
2022-08-19T18:06:36.821Z,64.50
2022-08-19T18:10:23.883Z,65.90
2022-08-19T18:14:16.752Z,67.90
2022-08-19T18:17:58.849Z,68.70
2022-08-19T18:21:40.896Z,69.50
2022-08-19T18:25:26.165Z,70.40
2022-08-19T18:29:09.466Z,70.90
2022-08-19T18:32:53.001Z,71.10
2022-08-19T18:36:52.875Z,71.10
2022-08-19T18:40:53.716Z,71.30
2022-08-19T18:44:59.611Z,72.20
2022-08-19T18:49:00.371Z,73.10
2022-08-19T18:52:42.426Z,73.70
2022-08-19T18:56:28.862Z,75.00
2022-08-19T19:00:11.486Z,75.90
2022-08-19T19:03:55.896Z,76.60
2022-08-19T19:07:37.855Z,77.30
2022-08-19T19:11:29.628Z,78.40
2022-08-19T19:15:12.777Z,79.20
2022-08-19T19:18:54.913Z,80.50
2022-08-19T19:22:36.942Z,82.00
2022-08-19T19:26:19.201Z,83.10
2022-08-19T19:30:01.201Z,84.70
2022-08-19T19:33:44.470Z,85.90
2022-08-19T19:37:26.457Z,87.50
2022-08-19T19:41:08.443Z,87.80
2022-08-19T19:44:52.616Z,87.80
2022-08-19T19:48:35.606Z,87.30
2022-08-19T19:52:17.919Z,86.80
2022-08-19T19:55:59.970Z,87.40
2022-08-19T19:59:44.839Z,87.10
2022-08-19T20:03:34.029Z,87.20
2022-08-19T20:07:15.968Z,87.40
2022-08-19T20:11:02.215Z,87.80
2022-08-19T20:14:44.155Z,87.80
2022-08-19T20:18:26.262Z,87.60
2022-08-19T20:22:08.390Z,88.10
2022-08-19T20:25:51.384Z,89.20
2022-08-19T20:29:39.527Z,89.80
2022-08-19T20:33:23.367Z,89.20
2022-08-19T20:37:05.708Z,90.20
2022-08-19T20:40:47.852Z,90.20
2022-08-19T20:44:29.735Z,90.60
2022-08-19T20:48:12.601Z,91.00
2022-08-19T20:51:58.459Z,91.30
2022-08-19T20:55:43.681Z,91.60
2022-08-19T20:59:27.162Z,92.00
2022-08-19T21:03:09.215Z,92.20
2022-08-19T21:06:51.419Z,92.70
2022-08-19T21:10:33.681Z,93.00
2022-08-19T21:14:17.481Z,93.60
2022-08-19T21:17:59.498Z,93.50
2022-08-19T21:21:41.447Z,93.70
2022-08-19T21:25:23.492Z,93.90
2022-08-19T21:29:05.553Z,93.80
2022-08-19T21:32:52.291Z,94.00
2022-08-19T21:36:34.574Z,94.20
2022-08-19T21:40:17.445Z,94.30
2022-08-19T21:43:59.450Z,94.40
2022-08-19T21:47:41.514Z,94.70
2022-08-19T21:51:23.540Z,94.70
2022-08-19T21:55:07.214Z,94.80
2022-08-19T21:58:49.468Z,94.90
2022-08-19T22:02:31.439Z,95.10
2022-08-19T22:06:13.367Z,95.10
2022-08-19T22:09:55.312Z,95.30
2022-08-19T22:13:40.601Z,95.30
2022-08-19T22:17:23.022Z,95.30
2022-08-19T22:21:11.265Z,95.40
2022-08-19T22:25:00.018Z,95.40
2022-08-19T22:28:43.016Z,95.50
2022-08-19T22:32:28.654Z,95.50
2022-08-19T22:36:11.002Z,95.60
2022-08-19T22:39:53.047Z,95.50
2022-08-19T22:43:37.527Z,95.60
2022-08-19T22:47:19.561Z,95.60
2022-08-19T22:51:19.908Z,95.60
2022-08-19T22:55:06.122Z,95.50
2022-08-19T22:58:50.648Z,95.50
2022-08-19T23:02:38.522Z,95.60
2022-08-19T23:06:35.653Z,95.70
2022-08-19T23:10:26.844Z,95.80
2022-08-19T23:14:12.619Z,95.90
2022-08-19T23:17:56.762Z,96.00
2022-08-19T23:21:41.554Z,96.10
2022-08-19T23:25:31.675Z,96.30
2022-08-19T23:29:31.947Z,96.40
2022-08-19T23:33:21.605Z,96.50
2022-08-19T23:37:03.638Z,96.60
2022-08-19T23:40:45.927Z,96.90
2022-08-19T23:44:28.626Z,97.10
2022-08-19T23:48:11.284Z,97.20
2022-08-19T23:51:54.591Z,97.40
2022-08-19T23:55:39.647Z,97.40
2022-08-19T23:59:21.934Z,97.60
